Aviation Digital Data Service (ADDS)

Output produced by METARs form (1743 UTC 28 July 2015)
found at http://aviationweather.gov/adds/metars/
 
KLAN 281743Z 2818/2918 16010KT P6SM SCT150 BKN250 
     FM290300 15003KT P6SM SCT250 
     FM291200 18005KT P6SM OVC050 
     FM291400 24007KT P6SM VCTS BKN035CB BKN080